sensor_id;sensor_type;location;lat;lon;timestamp;P1;durP1;ratioP1;P2;durP2;ratioP2
27438;SDS011;14887;51.252;7.470;2022-10-17T00:01:23;8.47;;;4.83;;
27438;SDS011;14887;51.252;7.470;2022-10-17T00:03:49;9.30;;;4.10;;
27438;SDS011;14887;51.252;7.470;2022-10-17T00:06:14;6.97;;;4.43;;
27438;SDS011;14887;51.252;7.470;2022-10-17T00:08:41;7.40;;;4.50;;
27438;SDS011;14887;51.252;7.470;2022-10-17T00:11:15;10.20;;;4.57;;
27438;SDS011;14887;51.252;7.470;2022-10-17T00:13:43;6.30;;;4.33;;
27438;SDS011;14887;51.252;7.470;2022-10-17T00:16:10;10.43;;;4.40;;
27438;SDS011;14887;51.252;7.470;2022-10-17T00:18:35;13.37;;;4.43;;
27438;SDS011;14887;51.252;7.470;2022-10-17T00:21:01;5.87;;;4.27;;
27438;SDS011;14887;51.252;7.470;2022-10-17T00:23:27;8.30;;;4.57;;
27438;SDS011;14887;51.252;7.470;2022-10-17T00:25:57;6.90;;;4.93;;
27438;SDS011;14887;51.252;7.470;2022-10-17T00:28:28;6.40;;;3.80;;
27438;SDS011;14887;51.252;7.470;2022-10-17T00:30:54;17.13;;;4.63;;
27438;SDS011;14887;51.252;7.470;2022-10-17T00:33:24;5.60;;;4.37;;
27438;SDS011;14887;51.252;7.470;2022-10-17T00:35:49;8.23;;;4.70;;
27438;SDS011;14887;51.252;7.470;2022-10-17T00:38:15;8.30;;;4.40;;
27438;SDS011;14887;51.252;7.470;2022-10-17T00:40:41;4.93;;;3.67;;
27438;SDS011;14887;51.252;7.470;2022-10-17T00:43:15;6.83;;;4.83;;
27438;SDS011;14887;51.252;7.470;2022-10-17T00:45:42;9.13;;;4.20;;
27438;SDS011;14887;51.252;7.470;2022-10-17T00:48:08;12.57;;;4.30;;
27438;SDS011;14887;51.252;7.470;2022-10-17T00:50:35;6.77;;;4.63;;
27438;SDS011;14887;51.252;7.470;2022-10-17T00:53:05;10.33;;;4.00;;
27438;SDS011;14887;51.252;7.470;2022-10-17T00:55:33;7.43;;;4.93;;
27438;SDS011;14887;51.252;7.470;2022-10-17T00:58:03;6.60;;;4.33;;
27438;SDS011;14887;51.252;7.470;2022-10-17T01:00:29;9.60;;;4.80;;
27438;SDS011;14887;51.252;7.470;2022-10-17T01:02:55;10.50;;;4.70;;
27438;SDS011;14887;51.252;7.470;2022-10-17T01:05:21;9.07;;;4.63;;
27438;SDS011;14887;51.252;7.470;2022-10-17T01:07:47;8.70;;;4.03;;
27438;SDS011;14887;51.252;7.470;2022-10-17T01:10:14;16.90;;;4.60;;
27438;SDS011;14887;51.252;7.470;2022-10-17T01:12:44;17.33;;;4.57;;
27438;SDS011;14887;51.252;7.470;2022-10-17T01:24:02;17.60;;;3.93;;
27438;SDS011;14887;51.252;7.470;2022-10-17T01:29:46;6.27;;;3.73;;
27438;SDS011;14887;51.252;7.470;2022-10-17T01:32:33;5.80;;;3.93;;
27438;SDS011;14887;51.252;7.470;2022-10-17T01:37:35;7.60;;;3.90;;
27438;SDS011;14887;51.252;7.470;2022-10-17T01:43:04;6.30;;;3.73;;
27438;SDS011;14887;51.252;7.470;2022-10-17T01:45:51;6.77;;;3.37;;
27438;SDS011;14887;51.252;7.470;2022-10-17T01:48:23;6.10;;;4.33;;
27438;SDS011;14887;51.252;7.470;2022-10-17T01:50:56;7.97;;;3.63;;
27438;SDS011;14887;51.252;7.470;2022-10-17T01:53:27;3.50;;;3.00;;
27438;SDS011;14887;51.252;7.470;2022-10-17T01:55:58;5.40;;;3.23;;
27438;SDS011;14887;51.252;7.470;2022-10-17T01:58:31;7.17;;;3.80;;
27438;SDS011;14887;51.252;7.470;2022-10-17T02:01:00;5.80;;;3.80;;
27438;SDS011;14887;51.252;7.470;2022-10-17T02:03:29;10.60;;;3.80;;
27438;SDS011;14887;51.252;7.470;2022-10-17T02:05:56;6.87;;;3.80;;
27438;SDS011;14887;51.252;7.470;2022-10-17T02:08:44;8.57;;;3.70;;
27438;SDS011;14887;51.252;7.470;2022-10-17T02:11:13;6.00;;;3.70;;
27438;SDS011;14887;51.252;7.470;2022-10-17T02:13:49;7.87;;;4.20;;
27438;SDS011;14887;51.252;7.470;2022-10-17T02:16:39;5.10;;;4.20;;
27438;SDS011;14887;51.252;7.470;2022-10-17T02:21:54;7.43;;;3.53;;
27438;SDS011;14887;51.252;7.470;2022-10-17T02:27:47;6.70;;;3.90;;
27438;SDS011;14887;51.252;7.470;2022-10-17T02:33:01;5.13;;;4.00;;
27438;SDS011;14887;51.252;7.470;2022-10-17T02:35:51;7.30;;;3.90;;
27438;SDS011;14887;51.252;7.470;2022-10-17T02:38:19;8.20;;;4.00;;
27438;SDS011;14887;51.252;7.470;2022-10-17T02:40:47;7.57;;;3.67;;
27438;SDS011;14887;51.252;7.470;2022-10-17T02:43:15;7.33;;;4.70;;
27438;SDS011;14887;51.252;7.470;2022-10-17T02:45:41;5.33;;;3.50;;
27438;SDS011;14887;51.252;7.470;2022-10-17T02:48:08;10.90;;;3.80;;
27438;SDS011;14887;51.252;7.470;2022-10-17T02:56:21;10.50;;;4.47;;
27438;SDS011;14887;51.252;7.470;2022-10-17T02:58:49;37.77;;;4.83;;
27438;SDS011;14887;51.252;7.470;2022-10-17T03:01:18;8.27;;;4.20;;
27438;SDS011;14887;51.252;7.470;2022-10-17T03:03:44;11.50;;;3.50;;
27438;SDS011;14887;51.252;7.470;2022-10-17T03:06:10;9.80;;;4.30;;
27438;SDS011;14887;51.252;7.470;2022-10-17T03:08:35;4.97;;;3.73;;
27438;SDS011;14887;51.252;7.470;2022-10-17T03:11:01;6.63;;;4.37;;
27438;SDS011;14887;51.252;7.470;2022-10-17T03:13:27;5.67;;;3.57;;
27438;SDS011;14887;51.252;7.470;2022-10-17T03:15:54;4.93;;;4.00;;
27438;SDS011;14887;51.252;7.470;2022-10-17T03:18:21;5.77;;;3.90;;
27438;SDS011;14887;51.252;7.470;2022-10-17T03:20:46;9.60;;;3.60;;
27438;SDS011;14887;51.252;7.470;2022-10-17T03:23:12;7.27;;;3.50;;
27438;SDS011;14887;51.252;7.470;2022-10-17T03:25:37;6.03;;;4.17;;
27438;SDS011;14887;51.252;7.470;2022-10-17T03:28:03;5.37;;;3.07;;
27438;SDS011;14887;51.252;7.470;2022-10-17T03:30:29;7.80;;;3.83;;
27438;SDS011;14887;51.252;7.470;2022-10-17T03:32:56;7.40;;;4.20;;
27438;SDS011;14887;51.252;7.470;2022-10-17T03:35:22;7.13;;;3.80;;
27438;SDS011;14887;51.252;7.470;2022-10-17T03:37:48;6.33;;;3.80;;
27438;SDS011;14887;51.252;7.470;2022-10-17T03:40:14;5.50;;;3.27;;
27438;SDS011;14887;51.252;7.470;2022-10-17T03:42:39;5.13;;;4.00;;
27438;SDS011;14887;51.252;7.470;2022-10-17T03:45:05;6.07;;;4.20;;
27438;SDS011;14887;51.252;7.470;2022-10-17T03:47:31;4.80;;;3.70;;
27438;SDS011;14887;51.252;7.470;2022-10-17T03:49:56;7.27;;;3.90;;
27438;SDS011;14887;51.252;7.470;2022-10-17T03:52:22;15.70;;;4.00;;
27438;SDS011;14887;51.252;7.470;2022-10-17T03:54:48;6.43;;;3.97;;
27438;SDS011;14887;51.252;7.470;2022-10-17T03:57:14;17.30;;;4.17;;
27438;SDS011;14887;51.252;7.470;2022-10-17T03:59:40;4.63;;;3.40;;
27438;SDS011;14887;51.252;7.470;2022-10-17T04:02:05;10.67;;;4.30;;
27438;SDS011;14887;51.252;7.470;2022-10-17T04:04:31;9.60;;;4.50;;
27438;SDS011;14887;51.252;7.470;2022-10-17T04:06:56;6.53;;;4.30;;
27438;SDS011;14887;51.252;7.470;2022-10-17T04:09:22;5.07;;;3.70;;
27438;SDS011;14887;51.252;7.470;2022-10-17T04:11:47;17.10;;;3.77;;
27438;SDS011;14887;51.252;7.470;2022-10-17T04:14:13;7.77;;;3.93;;
27438;SDS011;14887;51.252;7.470;2022-10-17T04:16:39;6.20;;;3.77;;
27438;SDS011;14887;51.252;7.470;2022-10-17T04:19:04;10.47;;;4.23;;
27438;SDS011;14887;51.252;7.470;2022-10-17T04:21:30;3.87;;;3.47;;
27438;SDS011;14887;51.252;7.470;2022-10-17T04:23:56;6.67;;;3.80;;
27438;SDS011;14887;51.252;7.470;2022-10-17T04:26:23;9.10;;;3.70;;
27438;SDS011;14887;51.252;7.470;2022-10-17T04:28:49;5.93;;;3.70;;
27438;SDS011;14887;51.252;7.470;2022-10-17T04:31:15;5.10;;;3.53;;
27438;SDS011;14887;51.252;7.470;2022-10-17T04:33:41;6.57;;;3.40;;
27438;SDS011;14887;51.252;7.470;2022-10-17T04:36:09;3.77;;;3.33;;
27438;SDS011;14887;51.252;7.470;2022-10-17T04:38:37;10.73;;;3.63;;
27438;SDS011;14887;51.252;7.470;2022-10-17T04:41:04;4.97;;;3.37;;
27438;SDS011;14887;51.252;7.470;2022-10-17T04:43:31;4.63;;;3.60;;
27438;SDS011;14887;51.252;7.470;2022-10-17T04:45:59;5.93;;;3.20;;
27438;SDS011;14887;51.252;7.470;2022-10-17T04:48:26;4.20;;;3.20;;
27438;SDS011;14887;51.252;7.470;2022-10-17T04:50:53;4.33;;;3.40;;
27438;SDS011;14887;51.252;7.470;2022-10-17T04:53:24;4.93;;;3.30;;
27438;SDS011;14887;51.252;7.470;2022-10-17T04:55:50;6.80;;;3.20;;
27438;SDS011;14887;51.252;7.470;2022-10-17T04:58:17;4.70;;;3.57;;
27438;SDS011;14887;51.252;7.470;2022-10-17T05:00:43;8.53;;;4.10;;
27438;SDS011;14887;51.252;7.470;2022-10-17T05:03:08;5.10;;;3.97;;
27438;SDS011;14887;51.252;7.470;2022-10-17T05:05:36;4.80;;;3.20;;
27438;SDS011;14887;51.252;7.470;2022-10-17T05:08:02;5.03;;;3.73;;
27438;SDS011;14887;51.252;7.470;2022-10-17T05:10:28;9.77;;;3.93;;
27438;SDS011;14887;51.252;7.470;2022-10-17T05:12:54;7.50;;;3.10;;
27438;SDS011;14887;51.252;7.470;2022-10-17T05:15:19;7.30;;;3.40;;
27438;SDS011;14887;51.252;7.470;2022-10-17T05:17:45;6.60;;;3.87;;
27438;SDS011;14887;51.252;7.470;2022-10-17T05:20:10;7.90;;;3.77;;
27438;SDS011;14887;51.252;7.470;2022-10-17T05:22:36;6.80;;;3.97;;
27438;SDS011;14887;51.252;7.470;2022-10-17T05:25:02;5.27;;;3.37;;
27438;SDS011;14887;51.252;7.470;2022-10-17T05:27:27;13.87;;;4.30;;
27438;SDS011;14887;51.252;7.470;2022-10-17T05:29:53;5.60;;;4.27;;
27438;SDS011;14887;51.252;7.470;2022-10-17T05:32:18;10.60;;;4.27;;
27438;SDS011;14887;51.252;7.470;2022-10-17T05:34:44;8.10;;;3.60;;
27438;SDS011;14887;51.252;7.470;2022-10-17T05:37:09;4.83;;;3.60;;
27438;SDS011;14887;51.252;7.470;2022-10-17T05:39:35;8.57;;;4.27;;
27438;SDS011;14887;51.252;7.470;2022-10-17T05:42:00;5.03;;;4.00;;
27438;SDS011;14887;51.252;7.470;2022-10-17T05:44:26;6.37;;;3.87;;
27438;SDS011;14887;51.252;7.470;2022-10-17T05:46:51;5.33;;;3.53;;
27438;SDS011;14887;51.252;7.470;2022-10-17T05:49:17;5.93;;;3.77;;
27438;SDS011;14887;51.252;7.470;2022-10-17T05:51:43;4.97;;;3.77;;
27438;SDS011;14887;51.252;7.470;2022-10-17T05:54:08;7.33;;;3.00;;
27438;SDS011;14887;51.252;7.470;2022-10-17T05:56:34;4.17;;;3.30;;
27438;SDS011;14887;51.252;7.470;2022-10-17T05:59:00;3.73;;;3.00;;
27438;SDS011;14887;51.252;7.470;2022-10-17T06:01:26;5.73;;;2.83;;
27438;SDS011;14887;51.252;7.470;2022-10-17T06:03:52;6.37;;;3.67;;
27438;SDS011;14887;51.252;7.470;2022-10-17T06:06:18;7.33;;;3.70;;
27438;SDS011;14887;51.252;7.470;2022-10-17T06:08:43;6.93;;;3.70;;
27438;SDS011;14887;51.252;7.470;2022-10-17T06:11:09;10.23;;;4.07;;
27438;SDS011;14887;51.252;7.470;2022-10-17T06:13:36;8.67;;;3.90;;
27438;SDS011;14887;51.252;7.470;2022-10-17T06:16:03;7.03;;;4.03;;
27438;SDS011;14887;51.252;7.470;2022-10-17T06:18:29;5.47;;;3.40;;
27438;SDS011;14887;51.252;7.470;2022-10-17T06:21:00;3.97;;;2.93;;
27438;SDS011;14887;51.252;7.470;2022-10-17T06:23:26;5.47;;;3.93;;
27438;SDS011;14887;51.252;7.470;2022-10-17T06:25:52;9.10;;;4.53;;
27438;SDS011;14887;51.252;7.470;2022-10-17T06:28:18;8.00;;;3.47;;
27438;SDS011;14887;51.252;7.470;2022-10-17T06:30:43;8.00;;;3.23;;
27438;SDS011;14887;51.252;7.470;2022-10-17T06:33:09;4.03;;;3.27;;
27438;SDS011;14887;51.252;7.470;2022-10-17T06:35:35;7.60;;;3.30;;
27438;SDS011;14887;51.252;7.470;2022-10-17T06:38:00;5.60;;;3.60;;
27438;SDS011;14887;51.252;7.470;2022-10-17T06:40:27;7.73;;;3.50;;
27438;SDS011;14887;51.252;7.470;2022-10-17T06:42:52;7.67;;;4.10;;
27438;SDS011;14887;51.252;7.470;2022-10-17T06:45:18;5.87;;;3.83;;
27438;SDS011;14887;51.252;7.470;2022-10-17T06:47:43;11.00;;;3.90;;
27438;SDS011;14887;51.252;7.470;2022-10-17T06:50:09;11.03;;;3.60;;
27438;SDS011;14887;51.252;7.470;2022-10-17T06:52:34;11.90;;;3.80;;
27438;SDS011;14887;51.252;7.470;2022-10-17T06:55:00;7.17;;;3.87;;
27438;SDS011;14887;51.252;7.470;2022-10-17T06:57:26;6.90;;;4.67;;
27438;SDS011;14887;51.252;7.470;2022-10-17T06:59:51;4.83;;;3.33;;
27438;SDS011;14887;51.252;7.470;2022-10-17T07:02:18;6.47;;;3.50;;
27438;SDS011;14887;51.252;7.470;2022-10-17T07:04:44;11.23;;;3.17;;
27438;SDS011;14887;51.252;7.470;2022-10-17T07:07:11;4.93;;;3.50;;
27438;SDS011;14887;51.252;7.470;2022-10-17T07:09:36;5.90;;;3.60;;
27438;SDS011;14887;51.252;7.470;2022-10-17T07:12:02;5.20;;;3.33;;
27438;SDS011;14887;51.252;7.470;2022-10-17T07:14:30;12.83;;;3.03;;
27438;SDS011;14887;51.252;7.470;2022-10-17T07:16:56;4.87;;;3.40;;
27438;SDS011;14887;51.252;7.470;2022-10-17T07:19:23;4.70;;;3.30;;
27438;SDS011;14887;51.252;7.470;2022-10-17T07:21:48;4.90;;;3.07;;
27438;SDS011;14887;51.252;7.470;2022-10-17T07:24:14;8.07;;;3.03;;
27438;SDS011;14887;51.252;7.470;2022-10-17T07:26:40;8.70;;;3.53;;
27438;SDS011;14887;51.252;7.470;2022-10-17T07:29:05;3.93;;;2.90;;
27438;SDS011;14887;51.252;7.470;2022-10-17T07:31:31;3.90;;;3.00;;
27438;SDS011;14887;51.252;7.470;2022-10-17T07:33:58;4.40;;;2.77;;
27438;SDS011;14887;51.252;7.470;2022-10-17T07:36:24;5.77;;;3.37;;
27438;SDS011;14887;51.252;7.470;2022-10-17T07:38:50;7.17;;;2.40;;
27438;SDS011;14887;51.252;7.470;2022-10-17T07:41:15;4.97;;;2.73;;
27438;SDS011;14887;51.252;7.470;2022-10-17T07:43:41;5.83;;;2.70;;
27438;SDS011;14887;51.252;7.470;2022-10-17T07:46:07;7.20;;;2.73;;
27438;SDS011;14887;51.252;7.470;2022-10-17T07:48:33;3.40;;;2.80;;
27438;SDS011;14887;51.252;7.470;2022-10-17T07:51:02;5.50;;;2.60;;
27438;SDS011;14887;51.252;7.470;2022-10-17T07:53:29;9.73;;;2.90;;
27438;SDS011;14887;51.252;7.470;2022-10-17T07:55:55;3.67;;;2.80;;
27438;SDS011;14887;51.252;7.470;2022-10-17T07:58:21;4.60;;;2.73;;
27438;SDS011;14887;51.252;7.470;2022-10-17T08:00:46;6.37;;;2.77;;
27438;SDS011;14887;51.252;7.470;2022-10-17T08:03:15;5.27;;;3.37;;
27438;SDS011;14887;51.252;7.470;2022-10-17T08:05:41;9.20;;;3.43;;
27438;SDS011;14887;51.252;7.470;2022-10-17T08:08:06;4.90;;;2.57;;
27438;SDS011;14887;51.252;7.470;2022-10-17T08:10:32;4.67;;;2.60;;
27438;SDS011;14887;51.252;7.470;2022-10-17T08:12:57;4.43;;;3.27;;
27438;SDS011;14887;51.252;7.470;2022-10-17T08:15:23;3.57;;;2.43;;
27438;SDS011;14887;51.252;7.470;2022-10-17T08:17:50;4.23;;;2.73;;
27438;SDS011;14887;51.252;7.470;2022-10-17T08:20:15;7.57;;;2.70;;
27438;SDS011;14887;51.252;7.470;2022-10-17T08:22:41;4.53;;;2.80;;
27438;SDS011;14887;51.252;7.470;2022-10-17T08:25:07;3.33;;;2.03;;
27438;SDS011;14887;51.252;7.470;2022-10-17T08:27:33;5.43;;;2.80;;
27438;SDS011;14887;51.252;7.470;2022-10-17T08:29:59;3.17;;;2.30;;
27438;SDS011;14887;51.252;7.470;2022-10-17T08:32:25;14.80;;;3.33;;
27438;SDS011;14887;51.252;7.470;2022-10-17T08:34:52;9.10;;;2.57;;
27438;SDS011;14887;51.252;7.470;2022-10-17T08:37:19;8.13;;;2.80;;
27438;SDS011;14887;51.252;7.470;2022-10-17T08:39:45;6.40;;;3.13;;
27438;SDS011;14887;51.252;7.470;2022-10-17T08:48:09;6.10;;;2.80;;
27438;SDS011;14887;51.252;7.470;2022-10-17T08:53:23;3.90;;;2.80;;
27438;SDS011;14887;51.252;7.470;2022-10-17T08:55:50;5.83;;;3.10;;
27438;SDS011;14887;51.252;7.470;2022-10-17T08:58:19;7.00;;;3.30;;
27438;SDS011;14887;51.252;7.470;2022-10-17T09:00:51;3.60;;;2.40;;
27438;SDS011;14887;51.252;7.470;2022-10-17T09:03:37;2.90;;;2.50;;
27438;SDS011;14887;51.252;7.470;2022-10-17T09:06:30;7.00;;;3.33;;
27438;SDS011;14887;51.252;7.470;2022-10-17T09:12:51;6.57;;;2.60;;
27438;SDS011;14887;51.252;7.470;2022-10-17T09:20:36;6.13;;;2.10;;
27438;SDS011;14887;51.252;7.470;2022-10-17T09:23:13;13.33;;;2.90;;
27438;SDS011;14887;51.252;7.470;2022-10-17T09:25:51;3.43;;;2.53;;
27438;SDS011;14887;51.252;7.470;2022-10-17T09:28:32;11.53;;;2.70;;
27438;SDS011;14887;51.252;7.470;2022-10-17T09:31:01;7.03;;;2.50;;
27438;SDS011;14887;51.252;7.470;2022-10-17T09:33:34;7.60;;;3.30;;
27438;SDS011;14887;51.252;7.470;2022-10-17T09:36:04;3.83;;;3.30;;
27438;SDS011;14887;51.252;7.470;2022-10-17T09:38:41;6.53;;;2.60;;
27438;SDS011;14887;51.252;7.470;2022-10-17T09:41:16;7.37;;;2.40;;
27438;SDS011;14887;51.252;7.470;2022-10-17T09:43:46;4.67;;;2.53;;
27438;SDS011;14887;51.252;7.470;2022-10-17T09:46:14;6.50;;;2.70;;
27438;SDS011;14887;51.252;7.470;2022-10-17T09:48:51;6.07;;;2.70;;
27438;SDS011;14887;51.252;7.470;2022-10-17T09:51:21;8.17;;;3.10;;
27438;SDS011;14887;51.252;7.470;2022-10-17T09:53:50;5.20;;;3.07;;
27438;SDS011;14887;51.252;7.470;2022-10-17T09:56:21;4.77;;;2.70;;
27438;SDS011;14887;51.252;7.470;2022-10-17T09:58:51;6.50;;;2.53;;
27438;SDS011;14887;51.252;7.470;2022-10-17T10:01:28;13.70;;;2.97;;
27438;SDS011;14887;51.252;7.470;2022-10-17T10:04:16;5.47;;;3.20;;
27438;SDS011;14887;51.252;7.470;2022-10-17T10:09:29;4.97;;;2.30;;
27438;SDS011;14887;51.252;7.470;2022-10-17T10:11:57;4.90;;;2.60;;
27438;SDS011;14887;51.252;7.470;2022-10-17T10:16:57;19.27;;;3.47;;
27438;SDS011;14887;51.252;7.470;2022-10-17T10:24:26;12.37;;;4.07;;
27438;SDS011;14887;51.252;7.470;2022-10-17T10:26:53;7.90;;;4.00;;
27438;SDS011;14887;51.252;7.470;2022-10-17T10:29:26;3.33;;;2.60;;
27438;SDS011;14887;51.252;7.470;2022-10-17T10:35:23;4.07;;;2.77;;
27438;SDS011;14887;51.252;7.470;2022-10-17T10:37:43;4.87;;;3.00;;
27438;SDS011;14887;51.252;7.470;2022-10-17T10:40:16;4.90;;;3.13;;
27438;SDS011;14887;51.252;7.470;2022-10-17T10:42:51;10.63;;;3.70;;
27438;SDS011;14887;51.252;7.470;2022-10-17T10:45:19;6.87;;;3.27;;
27438;SDS011;14887;51.252;7.470;2022-10-17T10:48:17;9.73;;;3.47;;
27438;SDS011;14887;51.252;7.470;2022-10-17T10:51:13;7.10;;;3.30;;
27438;SDS011;14887;51.252;7.470;2022-10-17T10:53:55;3.70;;;2.93;;
27438;SDS011;14887;51.252;7.470;2022-10-17T10:56:29;7.33;;;3.07;;
27438;SDS011;14887;51.252;7.470;2022-10-17T11:04:33;3.37;;;3.07;;
27438;SDS011;14887;51.252;7.470;2022-10-17T11:09:51;7.43;;;3.63;;
27438;SDS011;14887;51.252;7.470;2022-10-17T11:12:43;6.03;;;2.80;;
27438;SDS011;14887;51.252;7.470;2022-10-17T11:15:22;9.00;;;3.40;;
27438;SDS011;14887;51.252;7.470;2022-10-17T11:17:59;5.17;;;3.20;;
27438;SDS011;14887;51.252;7.470;2022-10-17T11:23:28;62.33;;;6.33;;
27438;SDS011;14887;51.252;7.470;2022-10-17T11:26:09;4.67;;;3.20;;
27438;SDS011;14887;51.252;7.470;2022-10-17T11:28:49;11.80;;;2.97;;
27438;SDS011;14887;51.252;7.470;2022-10-17T11:31:16;5.83;;;3.20;;
27438;SDS011;14887;51.252;7.470;2022-10-17T11:33:55;11.70;;;3.13;;
27438;SDS011;14887;51.252;7.470;2022-10-17T11:36:34;8.77;;;2.97;;
27438;SDS011;14887;51.252;7.470;2022-10-17T11:39:05;9.30;;;3.30;;
27438;SDS011;14887;51.252;7.470;2022-10-17T11:41:45;10.70;;;2.90;;
27438;SDS011;14887;51.252;7.470;2022-10-17T11:44:28;6.40;;;3.43;;
27438;SDS011;14887;51.252;7.470;2022-10-17T11:47:10;5.13;;;2.60;;
27438;SDS011;14887;51.252;7.470;2022-10-17T11:49:43;5.60;;;3.33;;
27438;SDS011;14887;51.252;7.470;2022-10-17T11:55:04;8.60;;;3.97;;
27438;SDS011;14887;51.252;7.470;2022-10-17T12:03:33;5.90;;;3.40;;
27438;SDS011;14887;51.252;7.470;2022-10-17T12:06:19;4.93;;;2.93;;
27438;SDS011;14887;51.252;7.470;2022-10-17T12:11:57;6.23;;;3.67;;
27438;SDS011;14887;51.252;7.470;2022-10-17T12:14:41;11.00;;;3.70;;
27438;SDS011;14887;51.252;7.470;2022-10-17T12:20:28;5.90;;;3.33;;
27438;SDS011;14887;51.252;7.470;2022-10-17T12:23:13;7.90;;;3.43;;
27438;SDS011;14887;51.252;7.470;2022-10-17T12:25:54;8.20;;;3.53;;
27438;SDS011;14887;51.252;7.470;2022-10-17T12:54:38;18.63;;;3.40;;
27438;SDS011;14887;51.252;7.470;2022-10-17T12:57:20;8.57;;;3.93;;
27438;SDS011;14887;51.252;7.470;2022-10-17T12:59:56;9.33;;;3.43;;
27438;SDS011;14887;51.252;7.470;2022-10-17T13:02:24;4.77;;;3.50;;
27438;SDS011;14887;51.252;7.470;2022-10-17T13:04:56;7.33;;;3.67;;
27438;SDS011;14887;51.252;7.470;2022-10-17T13:07:29;7.93;;;3.37;;
27438;SDS011;14887;51.252;7.470;2022-10-17T13:09:57;6.00;;;3.43;;
27438;SDS011;14887;51.252;7.470;2022-10-17T13:12:28;10.10;;;3.00;;
27438;SDS011;14887;51.252;7.470;2022-10-17T13:14:56;5.90;;;3.80;;
27438;SDS011;14887;51.252;7.470;2022-10-17T13:17:24;6.23;;;3.40;;
27438;SDS011;14887;51.252;7.470;2022-10-17T13:19:53;5.53;;;3.30;;
27438;SDS011;14887;51.252;7.470;2022-10-17T13:22:23;7.40;;;4.07;;
27438;SDS011;14887;51.252;7.470;2022-10-17T13:25:04;4.00;;;3.00;;
27438;SDS011;14887;51.252;7.470;2022-10-17T13:27:37;18.13;;;3.67;;
27438;SDS011;14887;51.252;7.470;2022-10-17T13:30:20;4.90;;;3.50;;
27438;SDS011;14887;51.252;7.470;2022-10-17T13:32:49;6.93;;;3.30;;
27438;SDS011;14887;51.252;7.470;2022-10-17T13:35:16;9.00;;;3.60;;
27438;SDS011;14887;51.252;7.470;2022-10-17T13:37:48;6.00;;;3.03;;
27438;SDS011;14887;51.252;7.470;2022-10-17T13:40:16;8.90;;;3.00;;
27438;SDS011;14887;51.252;7.470;2022-10-17T13:42:43;8.30;;;3.80;;
27438;SDS011;14887;51.252;7.470;2022-10-17T13:45:15;8.93;;;4.07;;
27438;SDS011;14887;51.252;7.470;2022-10-17T13:47:50;7.50;;;4.00;;
27438;SDS011;14887;51.252;7.470;2022-10-17T13:50:18;5.67;;;3.50;;
27438;SDS011;14887;51.252;7.470;2022-10-17T13:55:50;6.67;;;3.40;;
27438;SDS011;14887;51.252;7.470;2022-10-17T13:58:17;8.63;;;3.53;;
27438;SDS011;14887;51.252;7.470;2022-10-17T14:00:43;9.50;;;3.87;;
27438;SDS011;14887;51.252;7.470;2022-10-17T14:03:09;16.53;;;4.30;;
27438;SDS011;14887;51.252;7.470;2022-10-17T14:05:56;9.70;;;3.80;;
27438;SDS011;14887;51.252;7.470;2022-10-17T14:08:29;10.90;;;3.57;;
27438;SDS011;14887;51.252;7.470;2022-10-17T14:10:57;7.20;;;3.47;;
27438;SDS011;14887;51.252;7.470;2022-10-17T14:13:24;7.90;;;4.00;;
27438;SDS011;14887;51.252;7.470;2022-10-17T14:15:53;5.13;;;4.00;;
27438;SDS011;14887;51.252;7.470;2022-10-17T14:18:23;7.07;;;3.40;;
27438;SDS011;14887;51.252;7.470;2022-10-17T14:20:53;7.97;;;3.77;;
27438;SDS011;14887;51.252;7.470;2022-10-17T14:23:26;5.23;;;3.73;;
27438;SDS011;14887;51.252;7.470;2022-10-17T14:26:05;13.30;;;3.83;;
27438;SDS011;14887;51.252;7.470;2022-10-17T14:28:44;8.10;;;4.17;;
27438;SDS011;14887;51.252;7.470;2022-10-17T14:31:23;6.27;;;3.70;;
27438;SDS011;14887;51.252;7.470;2022-10-17T14:33:53;8.23;;;3.73;;
27438;SDS011;14887;51.252;7.470;2022-10-17T14:36:19;9.70;;;3.53;;
27438;SDS011;14887;51.252;7.470;2022-10-17T14:38:54;13.03;;;3.87;;
27438;SDS011;14887;51.252;7.470;2022-10-17T14:41:24;6.60;;;4.10;;
27438;SDS011;14887;51.252;7.470;2022-10-17T14:43:58;5.97;;;3.87;;
27438;SDS011;14887;51.252;7.470;2022-10-17T14:46:26;9.60;;;3.17;;
27438;SDS011;14887;51.252;7.470;2022-10-17T14:48:53;8.93;;;3.57;;
27438;SDS011;14887;51.252;7.470;2022-10-17T14:51:20;10.20;;;3.03;;
27438;SDS011;14887;51.252;7.470;2022-10-17T14:56:39;4.00;;;2.97;;
27438;SDS011;14887;51.252;7.470;2022-10-17T14:59:06;5.70;;;3.60;;
27438;SDS011;14887;51.252;7.470;2022-10-17T15:01:34;8.30;;;3.93;;
27438;SDS011;14887;51.252;7.470;2022-10-17T15:03:59;5.53;;;3.40;;
27438;SDS011;14887;51.252;7.470;2022-10-17T15:06:27;5.60;;;3.60;;
27438;SDS011;14887;51.252;7.470;2022-10-17T15:08:54;8.97;;;3.07;;
27438;SDS011;14887;51.252;7.470;2022-10-17T15:11:20;5.63;;;3.03;;
27438;SDS011;14887;51.252;7.470;2022-10-17T15:13:46;10.63;;;4.03;;
27438;SDS011;14887;51.252;7.470;2022-10-17T15:16:21;4.87;;;3.00;;
27438;SDS011;14887;51.252;7.470;2022-10-17T15:18:51;8.53;;;3.97;;
27438;SDS011;14887;51.252;7.470;2022-10-17T15:21:19;6.27;;;3.00;;
27438;SDS011;14887;51.252;7.470;2022-10-17T15:23:45;4.63;;;3.30;;
27438;SDS011;14887;51.252;7.470;2022-10-17T15:26:15;10.03;;;3.67;;
27438;SDS011;14887;51.252;7.470;2022-10-17T15:28:49;5.83;;;3.67;;
27438;SDS011;14887;51.252;7.470;2022-10-17T15:31:16;11.37;;;4.70;;
27438;SDS011;14887;51.252;7.470;2022-10-17T15:33:43;9.30;;;3.57;;
27438;SDS011;14887;51.252;7.470;2022-10-17T15:36:22;6.50;;;2.93;;
27438;SDS011;14887;51.252;7.470;2022-10-17T15:38:50;9.23;;;3.60;;
27438;SDS011;14887;51.252;7.470;2022-10-17T15:41:17;10.83;;;3.80;;
27438;SDS011;14887;51.252;7.470;2022-10-17T15:43:44;13.77;;;3.80;;
27438;SDS011;14887;51.252;7.470;2022-10-17T15:46:12;7.53;;;3.57;;
27438;SDS011;14887;51.252;7.470;2022-10-17T15:48:43;7.37;;;4.17;;
27438;SDS011;14887;51.252;7.470;2022-10-17T15:51:15;16.80;;;3.93;;
27438;SDS011;14887;51.252;7.470;2022-10-17T15:53:41;6.17;;;3.80;;
27438;SDS011;14887;51.252;7.470;2022-10-17T15:56:07;7.10;;;3.30;;
27438;SDS011;14887;51.252;7.470;2022-10-17T15:58:56;9.17;;;3.93;;
27438;SDS011;14887;51.252;7.470;2022-10-17T16:01:25;10.23;;;3.80;;
27438;SDS011;14887;51.252;7.470;2022-10-17T16:03:53;5.20;;;3.50;;
27438;SDS011;14887;51.252;7.470;2022-10-17T16:06:19;10.53;;;4.00;;
27438;SDS011;14887;51.252;7.470;2022-10-17T16:08:46;9.10;;;4.60;;
27438;SDS011;14887;51.252;7.470;2022-10-17T16:11:45;7.93;;;4.23;;
27438;SDS011;14887;51.252;7.470;2022-10-17T16:14:09;7.20;;;4.03;;
27438;SDS011;14887;51.252;7.470;2022-10-17T16:16:36;7.33;;;4.90;;
27438;SDS011;14887;51.252;7.470;2022-10-17T16:19:01;7.97;;;4.50;;
27438;SDS011;14887;51.252;7.470;2022-10-17T16:21:28;9.30;;;4.73;;
27438;SDS011;14887;51.252;7.470;2022-10-17T16:23:56;7.87;;;4.10;;
27438;SDS011;14887;51.252;7.470;2022-10-17T16:26:22;13.43;;;4.30;;
27438;SDS011;14887;51.252;7.470;2022-10-17T16:28:48;12.00;;;4.50;;
27438;SDS011;14887;51.252;7.470;2022-10-17T16:33:46;15.03;;;4.60;;
27438;SDS011;14887;51.252;7.470;2022-10-17T16:36:12;11.07;;;4.73;;
27438;SDS011;14887;51.252;7.470;2022-10-17T16:38:38;11.60;;;4.30;;
27438;SDS011;14887;51.252;7.470;2022-10-17T16:41:04;7.30;;;4.13;;
27438;SDS011;14887;51.252;7.470;2022-10-17T16:43:39;12.50;;;3.90;;
27438;SDS011;14887;51.252;7.470;2022-10-17T16:46:04;24.07;;;5.57;;
27438;SDS011;14887;51.252;7.470;2022-10-17T16:48:30;9.03;;;4.70;;
27438;SDS011;14887;51.252;7.470;2022-10-17T16:50:55;22.70;;;5.27;;
27438;SDS011;14887;51.252;7.470;2022-10-17T16:53:21;8.20;;;4.90;;
27438;SDS011;14887;51.252;7.470;2022-10-17T16:55:57;15.07;;;4.80;;
27438;SDS011;14887;51.252;7.470;2022-10-17T16:58:24;14.23;;;6.00;;
27438;SDS011;14887;51.252;7.470;2022-10-17T17:00:51;16.23;;;6.43;;
27438;SDS011;14887;51.252;7.470;2022-10-17T17:03:17;15.63;;;6.20;;